Time;durP1;ratioP1;P1;durP2;ratioP2;P2;SDS_P1;SDS_P2;PMS_P1;PMS_P2;Temp;Humidity;BMP_temperature;BMP_pressure;BME280_temperature;BME280_humidity;BME280_pressure;Samples;Min_cycle;Max_cycle;Signal;HPM_P1;HPM_P2
2024/04/23 00:01:32;;;;;;;6.10;2.78;;;;;;;-141.50;100.00;63355.56;5367498;26;20388;-81
2024/04/23 00:03:59;;;;;;;5.00;2.78;;;;;;;-141.50;100.00;63355.56;5372093;26;20461;-80
2024/04/23 00:06:27;;;;;;;5.13;2.45;;;;;;;-141.50;100.00;63355.56;5367904;26;20022;-81
2024/04/23 00:08:54;;;;;;;4.90;2.50;;;;;;;-141.50;100.00;63355.56;5400867;26;20055;-79
2024/04/23 00:11:21;;;;;;;5.25;2.55;;;;;;;-141.50;100.00;63355.56;5359184;26;20442;-82
2024/04/23 00:13:48;;;;;;;5.60;2.85;;;;;;;-141.50;100.00;63355.56;5364377;26;20073;-79
2024/04/23 00:16:15;;;;;;;7.57;3.17;;;;;;;-141.50;100.00;63355.56;5376606;26;20036;-79
2024/04/23 00:18:42;;;;;;;5.25;2.83;;;;;;;-141.50;100.00;63355.56;5339981;26;20009;-78
2024/04/23 00:21:10;;;;;;;6.57;2.60;;;;;;;-141.50;100.00;63355.56;5360924;26;20016;-80
2024/04/23 00:23:38;;;;;;;5.15;2.63;;;;;;;-141.50;100.00;63355.56;5366698;26;20438;-79
2024/04/23 00:26:06;;;;;;;9.75;2.83;;;;;;;-141.50;100.00;63355.56;5376685;26;20000;-80
2024/04/23 00:28:33;;;;;;;6.25;2.80;;;;;;;-141.50;100.00;63355.56;5377598;26;19997;-80
2024/04/23 00:31:00;;;;;;;8.80;3.28;;;;;;;-141.50;100.00;63355.56;5366802;26;20441;-79
2024/04/23 00:33:27;;;;;;;7.82;2.78;;;;;;;-141.50;100.00;63355.56;5372559;26;20706;-80
2024/04/23 00:35:54;;;;;;;5.40;2.45;;;;;;;-141.50;100.00;63355.56;5358805;26;20050;-80
2024/04/23 00:38:21;;;;;;;6.40;2.88;;;;;;;-141.50;100.00;63355.56;5374301;26;20449;-80
2024/04/23 00:40:48;;;;;;;7.78;3.47;;;;;;;-141.50;100.00;63355.56;5368222;26;20074;-81
2024/04/23 00:43:15;;;;;;;7.28;2.85;;;;;;;-141.50;100.00;63355.56;5363782;26;20041;-80
2024/04/23 00:45:47;;;;;;;9.20;3.13;;;;;;;-141.50;100.00;63355.56;5377193;26;20000;-80
2024/04/23 00:48:18;;;;;;;9.45;2.83;;;;;;;-141.50;100.00;63355.56;5349468;26;20059;-80
2024/04/23 00:50:47;;;;;;;5.32;2.60;;;;;;;-141.50;100.00;63355.56;5367222;26;19993;-79
2024/04/23 00:53:14;;;;;;;4.25;2.42;;;;;;;-141.50;100.00;63355.56;5356268;26;20001;-82
2024/04/23 00:55:42;;;;;;;6.32;2.88;;;;;;;-141.50;100.00;63355.56;5376960;26;20054;-80
2024/04/23 00:58:10;;;;;;;6.00;2.72;;;;;;;-141.50;100.00;63355.56;5364054;26;20000;-80
2024/04/23 01:00:38;;;;;;;7.00;2.90;;;;;;;-141.50;100.00;63355.56;5355310;26;20000;-80
2024/04/23 01:03:06;;;;;;;5.10;2.67;;;;;;;-141.50;100.00;63355.56;5359281;26;20078;-79
2024/04/23 01:05:33;;;;;;;6.57;3.03;;;;;;;-141.50;100.00;63355.56;5372844;26;20012;-78
2024/04/23 01:08:01;;;;;;;6.50;3.05;;;;;;;-141.50;100.00;63355.56;5371628;26;20077;-79
2024/04/23 01:10:28;;;;;;;6.65;3.25;;;;;;;-141.50;100.00;63355.56;5361844;26;20026;-82
2024/04/23 01:12:55;;;;;;;5.57;2.60;;;;;;;-141.50;100.00;63355.56;5366171;26;20015;-79
2024/04/23 01:15:26;;;;;;;7.40;2.97;;;;;;;-141.50;100.00;63355.56;5372474;26;20004;-79
2024/04/23 01:17:59;;;;;;;6.95;3.08;;;;;;;-141.50;100.00;63355.56;5363056;26;19996;-81
2024/04/23 01:20:27;;;;;;;6.25;3.03;;;;;;;-141.50;100.00;63355.56;5363441;26;20056;-82
2024/04/23 01:23:06;;;;;;;6.30;2.97;;;;;;;-141.50;100.00;63355.56;5369186;26;20434;-81
2024/04/23 01:25:36;;;;;;;7.38;3.20;;;;;;;-141.50;100.00;63355.56;5364715;26;20012;-80
2024/04/23 01:28:05;;;;;;;5.97;2.53;;;;;;;-141.50;100.00;63355.56;5364064;26;20005;-82
2024/04/23 01:30:34;;;;;;;7.82;3.03;;;;;;;-141.50;100.00;63355.56;5363055;26;20167;-81
2024/04/23 01:33:02;;;;;;;7.38;2.95;;;;;;;-141.50;100.00;63355.56;5359590;26;20001;-81
2024/04/23 01:35:30;;;;;;;7.07;2.95;;;;;;;-141.50;100.00;63355.56;5372387;26;20498;-78
2024/04/23 01:38:00;;;;;;;9.50;3.15;;;;;;;-141.50;100.00;63355.56;5359859;26;20008;-80
2024/04/23 01:40:28;;;;;;;7.30;3.28;;;;;;;-141.50;100.00;63355.56;5366443;26;20467;-81
2024/04/23 01:42:57;;;;;;;7.90;2.95;;;;;;;-141.50;100.00;63355.56;5376528;26;20004;-81
2024/04/23 01:45:24;;;;;;;7.22;2.78;;;;;;;-141.50;100.00;63355.56;5373930;26;20082;-81
2024/04/23 01:47:52;;;;;;;5.97;3.08;;;;;;;-141.50;100.00;63355.56;5363107;26;20000;-80
2024/04/23 01:50:19;;;;;;;6.03;2.92;;;;;;;-141.50;100.00;63355.56;5378427;26;20019;-80
2024/04/23 01:52:47;;;;;;;6.22;3.08;;;;;;;-141.50;100.00;63355.56;5374651;26;20000;-79
2024/04/23 01:55:16;;;;;;;5.57;2.75;;;;;;;-141.50;100.00;63355.56;5379321;26;20018;-80
2024/04/23 01:57:43;;;;;;;5.57;2.75;;;;;;;-141.50;100.00;63355.56;5380586;26;20004;-79
2024/04/23 02:00:13;;;;;;;5.70;2.80;;;;;;;-141.50;100.00;63355.56;5378644;26;20018;-79
2024/04/23 02:02:42;;;;;;;5.80;2.63;;;;;;;-141.50;100.00;63355.56;5377701;26;20051;-81
2024/04/23 02:05:10;;;;;;;6.70;3.03;;;;;;;-141.50;100.00;63355.56;5380251;26;20070;-79
2024/04/23 02:07:37;;;;;;;8.75;3.55;;;;;;;-141.50;100.00;63355.56;5376339;26;20009;-79
2024/04/23 02:10:05;;;;;;;5.65;2.80;;;;;;;-141.50;100.00;63355.56;5365317;26;20036;-80
2024/04/23 02:12:33;;;;;;;7.63;3.10;;;;;;;-141.50;100.00;63355.56;5374415;26;20008;-80
2024/04/23 02:15:00;;;;;;;6.00;2.75;;;;;;;-141.50;100.00;63355.56;5347824;26;20029;-79
2024/04/23 02:17:27;;;;;;;6.03;2.90;;;;;;;-141.50;100.00;63355.56;5376636;26;20004;-81
2024/04/23 02:19:54;;;;;;;4.70;2.55;;;;;;;-141.50;100.00;63355.56;5364244;26;20007;-80
2024/04/23 02:22:21;;;;;;;6.43;2.33;;;;;;;-141.50;100.00;63355.56;5366605;26;20051;-80
2024/04/23 02:24:48;;;;;;;6.72;2.90;;;;;;;-141.50;100.00;63355.56;5342426;26;20016;-80
2024/04/23 02:27:15;;;;;;;5.60;2.85;;;;;;;-141.50;100.00;63355.56;5343697;26;20020;-81
2024/04/23 02:29:42;;;;;;;7.85;2.58;;;;;;;-141.50;100.00;63355.56;5342766;26;20585;-79
2024/04/23 02:32:09;;;;;;;9.40;2.80;;;;;;;-141.50;100.00;63355.56;5342213;26;20279;-77
2024/04/23 02:34:36;;;;;;;6.30;2.80;;;;;;;-141.50;100.00;63355.56;5356238;26;20457;-80
2024/04/23 02:37:04;;;;;;;5.75;2.58;;;;;;;-141.50;100.00;63355.56;5367012;26;20345;-79
2024/04/23 02:39:31;;;;;;;8.32;2.85;;;;;;;-141.50;100.00;63355.56;5403013;26;20019;-80
2024/04/23 02:41:59;;;;;;;6.07;2.47;;;;;;;-141.50;100.00;63355.56;5374262;26;20054;-81
2024/04/23 02:44:26;;;;;;;5.65;2.38;;;;;;;-141.50;100.00;63355.56;5377929;26;20005;-81
2024/04/23 02:46:53;;;;;;;7.72;3.13;;;;;;;-141.50;100.00;63355.56;5378744;26;20063;-79
2024/04/23 02:49:20;;;;;;;5.53;2.45;;;;;;;-141.50;100.00;63355.56;5373939;26;20087;-81
2024/04/23 02:51:52;;;;;;;9.98;3.03;;;;;;;-141.50;100.00;63355.56;5379220;26;20011;-80
2024/04/23 02:54:20;;;;;;;5.15;2.47;;;;;;;-141.50;100.00;63355.56;5379159;26;20008;-80
2024/04/23 02:56:48;;;;;;;7.68;2.83;;;;;;;-141.50;100.00;63355.56;5361606;26;20055;-79
2024/04/23 02:59:15;;;;;;;7.43;3.17;;;;;;;-141.50;100.00;63355.56;5380532;26;20462;-79
2024/04/23 03:01:43;;;;;;;8.07;2.70;;;;;;;-141.50;100.00;63355.56;5345333;26;20056;-81
2024/04/23 03:04:10;;;;;;;4.88;2.50;;;;;;;-141.50;100.00;63355.56;5361494;26;20000;-83
2024/04/23 03:06:38;;;;;;;5.93;2.75;;;;;;;-141.50;100.00;63355.56;5377533;26;20009;-79
2024/04/23 03:09:05;;;;;;;6.05;2.70;;;;;;;-141.50;100.00;63355.56;5367074;26;20015;-80
2024/04/23 03:11:32;;;;;;;5.47;2.60;;;;;;;-141.50;100.00;63355.56;5376617;26;20012;-79
2024/04/23 03:13:59;;;;;;;5.82;2.72;;;;;;;-141.50;100.00;63355.56;5377605;26;20381;-80
2024/04/23 03:16:26;;;;;;;5.72;2.75;;;;;;;-141.50;100.00;63355.56;5378581;26;20008;-79
2024/04/23 03:18:54;;;;;;;5.85;2.75;;;;;;;-141.50;100.00;63355.56;5374193;26;20010;-78
2024/04/23 03:21:21;;;;;;;5.78;2.83;;;;;;;-141.50;100.00;63355.56;5371818;26;20016;-79
2024/04/23 03:23:48;;;;;;;7.82;2.72;;;;;;;-141.50;100.00;63355.56;5359578;26;20065;-80
2024/04/23 03:26:15;;;;;;;8.38;3.10;;;;;;;-141.50;100.00;63355.56;5402794;26;20309;-80
2024/04/23 03:28:42;;;;;;;5.13;2.70;;;;;;;-141.50;100.00;63355.56;5378400;26;20019;-79
2024/04/23 03:31:10;;;;;;;7.40;3.25;;;;;;;-141.50;100.00;63355.56;5362244;26;20504;-79
2024/04/23 03:33:37;;;;;;;6.45;3.22;;;;;;;-141.50;100.00;63355.56;5372151;26;20083;-81
2024/04/23 03:36:07;;;;;;;5.88;2.92;;;;;;;-141.50;100.00;63355.56;5338108;26;20016;-82
2024/04/23 03:38:43;;;;;;;7.18;3.10;;;;;;;-141.50;100.00;63355.56;5373424;26;20016;-81
2024/04/23 03:41:11;;;;;;;6.68;2.90;;;;;;;-141.50;100.00;63355.56;5333821;26;19992;-79
2024/04/23 03:43:38;;;;;;;6.68;3.03;;;;;;;-141.50;100.00;63355.56;5374411;26;20016;-82
2024/04/23 03:46:05;;;;;;;6.35;2.95;;;;;;;-141.50;100.00;63355.56;5359556;26;20054;-81
2024/04/23 03:48:32;;;;;;;7.72;3.22;;;;;;;-141.50;100.00;63355.56;5335731;26;20015;-81
2024/04/23 03:50:59;;;;;;;6.20;3.05;;;;;;;-141.50;100.00;63355.56;5333500;26;20001;-81
2024/04/23 03:53:27;;;;;;;7.35;3.28;;;;;;;-141.50;100.00;63355.56;5332919;26;20020;-81
2024/04/23 03:55:54;;;;;;;9.27;2.95;;;;;;;-141.50;100.00;63355.56;5362284;26;20050;-77
2024/04/23 03:58:21;;;;;;;5.28;2.42;;;;;;;-141.50;100.00;63355.56;5356545;26;20461;-78
2024/04/23 04:00:48;;;;;;;4.47;2.45;;;;;;;-141.50;100.00;63355.56;5373365;26;20449;-80
2024/04/23 04:06:07;;;;;;;6.47;3.17;;;;;;;-141.50;100.00;63355.56;5378338;26;20187;-78
2024/04/23 04:08:38;;;;;;;5.57;2.67;;;;;;;-141.50;100.00;63355.56;5346940;26;20005;-78
2024/04/23 04:11:06;;;;;;;4.72;2.50;;;;;;;-141.50;100.00;63355.56;5372071;26;20004;-79
2024/04/23 04:13:33;;;;;;;5.57;2.78;;;;;;;-141.50;100.00;63355.56;5376511;26;20024;-80
2024/04/23 04:16:00;;;;;;;6.53;3.20;;;;;;;-141.50;100.00;63355.56;5372869;26;20345;-79
2024/04/23 04:18:27;;;;;;;9.57;2.97;;;;;;;-141.50;100.00;63355.56;5374206;26;20446;-80
2024/04/23 04:20:54;;;;;;;5.43;2.80;;;;;;;-141.50;100.00;63355.56;5366320;26;20004;-79
2024/04/23 04:23:22;;;;;;;6.97;3.35;;;;;;;-141.50;100.00;63355.56;5341755;26;20015;-79
2024/04/23 04:25:49;;;;;;;5.82;2.72;;;;;;;-141.50;100.00;63355.56;5357474;26;20000;-78
2024/04/23 04:28:16;;;;;;;5.88;3.15;;;;;;;-141.50;100.00;63355.56;5369882;26;20013;-77
2024/04/23 04:30:43;;;;;;;5.63;2.92;;;;;;;-141.50;100.00;63355.56;5368032;26;20130;-78
2024/04/23 04:33:11;;;;;;;6.13;2.70;;;;;;;-141.50;100.00;63355.56;5347130;26;20393;-78
2024/04/23 04:35:39;;;;;;;6.85;3.05;;;;;;;-141.50;100.00;63355.56;5373487;26;20468;-79
2024/04/23 04:38:06;;;;;;;8.57;3.65;;;;;;;-141.50;100.00;63355.56;5350764;26;20001;-78
2024/04/23 04:40:34;;;;;;;11.30;4.57;;;;;;;-141.50;100.00;63355.56;5361468;26;20403;-77
2024/04/23 04:43:01;;;;;;;11.68;4.75;;;;;;;-141.50;100.00;63355.56;5351619;26;20028;-80
2024/04/23 04:45:28;;;;;;;10.95;4.75;;;;;;;-141.50;100.00;63355.56;5372464;26;20489;-81
2024/04/23 04:47:58;;;;;;;10.77;4.28;;;;;;;-141.50;100.00;63355.56;5355674;26;20001;-81
2024/04/23 04:50:26;;;;;;;10.68;3.78;;;;;;;-141.50;100.00;63355.56;5371648;26;20020;-81
2024/04/23 04:52:52;;;;;;;9.95;4.10;;;;;;;-141.50;100.00;63355.56;5375198;26;20000;-78
2024/04/23 04:55:20;;;;;;;7.20;3.25;;;;;;;-141.50;100.00;63355.56;5368223;26;20004;-78
2024/04/23 04:57:50;;;;;;;7.80;3.75;;;;;;;-141.50;100.00;63355.56;5354282;26;20008;-81
2024/04/23 05:00:17;;;;;;;10.55;3.90;;;;;;;-141.50;100.00;63355.56;5362922;26;20471;-79
2024/04/23 05:02:44;;;;;;;12.35;4.35;;;;;;;-141.50;100.00;63355.56;5376253;26;20082;-79
2024/04/23 05:05:12;;;;;;;10.95;4.35;;;;;;;-141.50;100.00;63355.56;5390572;26;20004;-80
2024/04/23 05:07:38;;;;;;;11.57;4.50;;;;;;;-141.50;100.00;63355.56;5345862;26;20019;-79
2024/04/23 05:10:06;;;;;;;9.20;3.92;;;;;;;-141.50;100.00;63355.56;5363254;26;20532;-80
2024/04/23 05:12:37;;;;;;;8.38;3.60;;;;;;;-141.50;100.00;63355.56;5350167;26;20019;-80
2024/04/23 05:15:05;;;;;;;10.48;4.72;;;;;;;-141.50;100.00;63355.56;5376942;26;20012;-80
2024/04/23 05:17:32;;;;;;;17.13;4.60;;;;;;;-141.50;100.00;63355.56;5408643;26;20023;-79
2024/04/23 05:19:59;;;;;;;12.32;4.97;;;;;;;-141.50;100.00;63355.56;5373311;26;20004;-80
2024/04/23 05:22:27;;;;;;;10.13;4.80;;;;;;;-141.50;100.00;63355.56;5375457;26;20000;-80
2024/04/23 05:24:54;;;;;;;10.00;4.43;;;;;;;-141.50;100.00;63355.56;5373279;26;20019;-79
2024/04/23 05:27:22;;;;;;;13.07;4.38;;;;;;;-141.50;100.00;63355.56;5376270;26;20019;-79
2024/04/23 05:29:54;;;;;;;15.13;4.88;;;;;;;-141.50;100.00;63355.56;5354883;26;20006;-79
2024/04/23 05:35:09;;;;;;;10.30;4.40;;;;;;;-141.50;100.00;63355.56;5349689;26;20085;-79
2024/04/23 05:37:37;;;;;;;9.68;4.10;;;;;;;-141.50;100.00;63355.56;5366784;26;20005;-78
2024/04/23 05:40:10;;;;;;;9.07;3.80;;;;;;;-141.50;100.00;63355.56;5360920;26;20020;-78
2024/04/23 05:42:37;;;;;;;7.97;3.85;;;;;;;-141.50;100.00;63355.56;5375882;26;20019;-80
2024/04/23 05:45:04;;;;;;;11.30;4.57;;;;;;;-141.50;100.00;63355.56;5373572;26;20012;-79
2024/04/23 05:47:31;;;;;;;8.55;4.15;;;;;;;-141.50;100.00;63355.56;5363989;26;20085;-80
2024/04/23 05:50:55;;;;;;;9.15;3.50;;;;;;;-141.50;100.00;63355.56;5342251;26;20076;-80
2024/04/23 05:54:18;;;;;;;9.15;3.70;;;;;;;-141.50;100.00;63355.56;5371222;26;20907;-79
2024/04/23 05:57:04;;;;;;;7.07;3.20;;;;;;;-141.50;100.00;63355.56;5344934;26;20452;-79
2024/04/23 05:59:31;;;;;;;8.25;3.60;;;;;;;-141.50;100.00;63355.56;5342201;26;20023;-80
2024/04/23 06:01:58;;;;;;;7.65;3.55;;;;;;;-141.50;100.00;63355.56;5335127;26;20021;-78
2024/04/23 06:04:25;;;;;;;8.27;3.53;;;;;;;-141.50;100.00;63355.56;5328210;26;20006;-79
2024/04/23 06:06:52;;;;;;;5.88;3.05;;;;;;;-141.50;100.00;63355.56;5370582;26;20016;-78
2024/04/23 06:09:20;;;;;;;7.35;3.20;;;;;;;-141.50;100.00;63355.56;5373794;26;20081;-80
2024/04/23 06:11:47;;;;;;;7.45;3.30;;;;;;;-141.50;100.00;63355.56;5365833;26;20006;-80
2024/04/23 06:14:14;;;;;;;8.07;3.60;;;;;;;-141.50;100.00;63355.56;5374440;26;20000;-79
2024/04/23 06:16:41;;;;;;;7.00;2.88;;;;;;;-141.50;100.00;63355.56;5362899;26;20000;-79
2024/04/23 06:19:08;;;;;;;6.53;3.22;;;;;;;-141.50;100.00;63355.56;5335044;26;20408;-79
2024/04/23 06:21:35;;;;;;;9.63;2.80;;;;;;;-141.50;100.00;63355.56;5358441;26;20015;-79
2024/04/23 06:24:03;;;;;;;8.80;3.33;;;;;;;-141.50;100.00;63355.56;5364499;26;20471;-81
2024/04/23 06:26:30;;;;;;;8.40;2.63;;;;;;;-141.50;100.00;63355.56;5362059;26;20004;-81
2024/04/23 06:28:57;;;;;;;8.57;3.53;;;;;;;-141.50;100.00;63355.56;5346315;26;20024;-80
2024/04/23 06:31:30;;;;;;;7.38;3.15;;;;;;;-141.50;100.00;63355.56;5338523;26;20044;-81
2024/04/23 06:33:59;;;;;;;6.28;2.85;;;;;;;-141.50;100.00;63355.56;5367223;26;20013;-81
2024/04/23 06:36:26;;;;;;;6.32;3.35;;;;;;;-141.50;100.00;63355.56;5377364;26;20005;-79
2024/04/23 06:38:53;;;;;;;7.07;3.03;;;;;;;-141.50;100.00;63355.56;5367395;26;20000;-81
2024/04/23 06:41:21;;;;;;;8.27;2.67;;;;;;;-141.50;100.00;63355.56;5347022;26;20008;-79
2024/04/23 06:43:48;;;;;;;5.55;2.75;;;;;;;-141.50;100.00;63355.56;5364720;26;20001;-79
2024/04/23 06:46:15;;;;;;;7.25;2.50;;;;;;;-141.50;100.00;63355.56;5376502;26;20036;-78
2024/04/23 06:48:42;;;;;;;7.82;2.50;;;;;;;-141.50;100.00;63355.56;5346469;26;20005;-79
2024/04/23 06:51:09;;;;;;;7.38;2.97;;;;;;;-141.50;100.00;63355.56;5362717;26;20016;-80
2024/04/23 06:53:36;;;;;;;6.28;2.83;;;;;;;-141.50;100.00;63355.56;5363805;26;20056;-81
2024/04/23 06:56:04;;;;;;;6.07;2.30;;;;;;;-141.50;100.00;63355.56;5375473;26;20000;-80
2024/04/23 06:58:31;;;;;;;4.68;2.53;;;;;;;-141.50;100.00;63355.56;5367076;26;20485;-81
2024/04/23 07:00:59;;;;;;;5.03;2.40;;;;;;;-141.50;100.00;63355.56;5375905;26;20037;-80
2024/04/23 07:03:26;;;;;;;4.60;2.22;;;;;;;-141.50;100.00;63355.56;5360255;26;20282;-80
2024/04/23 07:05:53;;;;;;;6.18;2.22;;;;;;;-141.50;100.00;63355.56;5360572;26;20000;-79
2024/04/23 07:08:20;;;;;;;5.65;2.40;;;;;;;-141.50;100.00;63355.56;5346460;26;20008;-79
2024/04/23 07:10:48;;;;;;;3.65;1.95;;;;;;;-141.50;100.00;63355.56;5369350;26;20004;-81
2024/04/23 07:13:15;;;;;;;4.85;2.35;;;;;;;-141.50;100.00;63355.56;5372204;26;20052;-80
2024/04/23 07:15:42;;;;;;;4.70;1.95;;;;;;;-141.50;100.00;63355.56;5343488;26;20396;-81
2024/04/23 07:18:16;;;;;;;4.18;2.08;;;;;;;-141.50;100.00;63355.56;5344920;26;20009;-80
2024/04/23 07:20:45;;;;;;;6.68;1.90;;;;;;;-141.50;100.00;63355.56;5366745;26;20001;-79
2024/04/23 07:23:12;;;;;;;4.07;2.00;;;;;;;-141.50;100.00;63355.56;5351532;26;20005;-78
2024/04/23 07:25:39;;;;;;;4.93;2.05;;;;;;;-141.50;100.00;63355.56;5388803;26;20057;-79
2024/04/23 07:28:06;;;;;;;4.50;2.30;;;;;;;-141.50;100.00;63355.56;5373289;26;20464;-78
2024/04/23 07:30:35;;;;;;;4.07;2.05;;;;;;;-141.50;100.00;63355.56;5345931;26;20004;-79
2024/04/23 07:33:02;;;;;;;3.53;1.67;;;;;;;-141.50;100.00;63355.56;5361893;26;20005;-79
2024/04/23 07:35:29;;;;;;;4.32;2.13;;;;;;;-141.50;100.00;63355.56;5371479;26;20016;-81
2024/04/23 07:37:56;;;;;;;4.70;1.98;;;;;;;-141.50;100.00;63355.56;5357300;26;20032;-81
2024/04/23 07:40:23;;;;;;;3.03;1.60;;;;;;;-141.50;100.00;63355.56;5326320;26;20352;-81
2024/04/23 07:42:51;;;;;;;2.80;1.50;;;;;;;-141.50;100.00;63355.56;5361445;26;20019;-80
2024/04/23 07:45:18;;;;;;;4.30;1.75;;;;;;;-141.50;100.00;63355.56;5371727;26;20058;-78
2024/04/23 07:47:45;;;;;;;3.88;1.67;;;;;;;-141.50;100.00;63355.56;5362702;26;20001;-81
2024/04/23 07:50:12;;;;;;;3.25;1.60;;;;;;;-141.50;100.00;63355.56;5361886;26;20733;-79
2024/04/23 07:52:39;;;;;;;4.95;1.70;;;;;;;-141.50;100.00;63355.56;5367860;26;19997;-80
2024/04/23 07:55:06;;;;;;;2.55;1.40;;;;;;;-141.50;100.00;63355.56;5352166;26;20011;-78
2024/04/23 07:57:34;;;;;;;2.67;1.38;;;;;;;-141.50;100.00;63355.56;5343402;26;20010;-79
2024/04/23 08:00:01;;;;;;;1.60;1.25;;;;;;;-141.50;100.00;63355.56;5372297;26;20015;-82
2024/04/23 08:02:30;;;;;;;2.30;1.20;;;;;;;-141.50;100.00;63355.56;5371413;26;20004;-80
2024/04/23 08:04:57;;;;;;;2.85;1.52;;;;;;;-141.50;100.00;63355.56;5364395;26;20008;-81
2024/04/23 08:07:26;;;;;;;1.90;1.30;;;;;;;-141.50;100.00;63355.56;5345567;26;20013;-80
2024/04/23 08:09:53;;;;;;;2.40;1.30;;;;;;;-141.50;100.00;63355.56;5363303;26;20004;-80
2024/04/23 08:12:20;;;;;;;4.15;1.38;;;;;;;-141.50;100.00;63355.56;5357712;26;20008;-81
2024/04/23 08:14:47;;;;;;;2.47;1.52;;;;;;;-141.50;100.00;63355.56;5361474;26;20339;-81
2024/04/23 08:17:14;;;;;;;2.28;1.20;;;;;;;-141.50;100.00;63355.56;5352178;26;20454;-79
2024/04/23 08:19:42;;;;;;;3.47;1.60;;;;;;;-141.50;100.00;63355.56;5362403;26;20001;-80
2024/04/23 08:22:09;;;;;;;2.22;1.33;;;;;;;-141.50;100.00;63355.56;5369158;26;20370;-80
2024/04/23 08:24:36;;;;;;;2.63;1.63;;;;;;;-141.50;100.00;63355.56;5369991;26;20012;-80
2024/04/23 08:27:03;;;;;;;4.78;1.73;;;;;;;-141.50;100.00;63355.56;5371432;26;20037;-80
2024/04/23 08:29:31;;;;;;;3.53;1.83;;;;;;;-141.50;100.00;63355.56;5356932;26;20000;-80
2024/04/23 08:31:58;;;;;;;2.75;1.50;;;;;;;-141.50;100.00;63355.56;5361315;26;20019;-77
2024/04/23 08:34:25;;;;;;;4.93;1.52;;;;;;;-141.50;100.00;63355.56;5353861;26;20019;-78
2024/04/23 08:36:54;;;;;;;3.72;1.50;;;;;;;-141.50;100.00;63355.56;5365929;26;19993;-79
2024/04/23 08:39:21;;;;;;;3.90;1.75;;;;;;;-141.50;100.00;63355.56;5358085;26;20058;-79
2024/04/23 08:41:51;;;;;;;3.42;1.60;;;;;;;-141.50;100.00;63355.56;5348859;26;19997;-80
2024/04/23 08:44:24;;;;;;;2.20;1.50;;;;;;;-141.50;100.00;63355.56;5348509;26;20009;-79
2024/04/23 08:46:51;;;;;;;2.13;1.35;;;;;;;-141.50;100.00;63355.56;5364116;26;20005;-81
2024/04/23 08:49:19;;;;;;;2.45;1.50;;;;;;;-141.50;100.00;63355.56;5357745;26;20346;-81
2024/04/23 08:51:46;;;;;;;2.65;1.67;;;;;;;-141.50;100.00;63355.56;5367694;26;20005;-81
2024/04/23 08:54:13;;;;;;;3.47;1.30;;;;;;;-141.50;100.00;63355.56;5355036;26;20015;-81
2024/04/23 08:56:44;;;;;;;2.72;1.38;;;;;;;-141.50;100.00;63355.56;5374558;26;20008;-79
2024/04/23 08:59:18;;;;;;;1.70;1.23;;;;;;;-141.50;100.00;63355.56;5373816;26;20000;-81
2024/04/23 09:01:48;;;;;;;4.18;1.70;;;;;;;-141.50;100.00;63355.56;5363869;26;20448;-79
2024/04/23 09:04:16;;;;;;;2.60;1.30;;;;;;;-141.50;100.00;63355.56;5351392;26;20016;-81
2024/04/23 09:06:45;;;;;;;2.60;1.23;;;;;;;-141.50;100.00;63355.56;5362390;26;20025;-81
2024/04/23 09:09:15;;;;;;;3.78;1.77;;;;;;;-141.50;100.00;63355.56;5368801;26;20078;-79
2024/04/23 09:11:42;;;;;;;2.80;1.35;;;;;;;-141.50;100.00;63355.56;5357251;26;20440;-78
2024/04/23 09:14:12;;;;;;;2.25;1.50;;;;;;;-141.50;100.00;63355.56;5358707;26;20015;-80
2024/04/23 09:16:39;;;;;;;1.70;1.17;;;;;;;-141.50;100.00;63355.56;5379885;26;20004;-81
2024/04/23 09:19:06;;;;;;;2.95;1.40;;;;;;;-141.50;100.00;63355.56;5355103;26;20011;-79
2024/04/23 09:21:34;;;;;;;1.95;1.40;;;;;;;-141.50;100.00;63355.56;5365426;26;20267;-79
2024/04/23 09:24:02;;;;;;;2.53;1.13;;;;;;;-141.50;100.00;63355.56;5376001;26;20014;-80
2024/04/23 09:26:30;;;;;;;1.73;1.10;;;;;;;-141.50;100.00;63355.56;5368117;26;20038;-81
2024/04/23 09:28:57;;;;;;;2.40;1.50;;;;;;;-141.50;100.00;63355.56;5368230;26;20082;-80
2024/04/23 09:31:24;;;;;;;1.70;1.10;;;;;;;-141.50;100.00;63355.56;5366514;26;20008;-79
2024/04/23 09:33:52;;;;;;;2.15;1.02;;;;;;;-141.50;100.00;63355.56;5368389;26;20011;-78
2024/04/23 09:36:26;;;;;;;1.88;0.80;;;;;;;-141.50;100.00;63355.56;5372110;26;20023;-80
2024/04/23 09:38:55;;;;;;;2.00;1.20;;;;;;;-141.50;100.00;63355.56;5357735;26;20072;-81
2024/04/23 09:41:28;;;;;;;1.73;0.90;;;;;;;-141.50;100.00;63355.56;5373720;26;20058;-78
2024/04/23 09:43:57;;;;;;;1.75;1.20;;;;;;;-141.50;100.00;63355.56;5362368;26;20069;-78
2024/04/23 09:46:28;;;;;;;1.90;1.00;;;;;;;-141.50;100.00;63355.56;5371992;26;20004;-78
2024/04/23 09:48:59;;;;;;;1.77;1.10;;;;;;;-141.50;100.00;63355.56;5364387;26;20015;-79
2024/04/23 09:51:30;;;;;;;1.92;1.00;;;;;;;-141.50;100.00;63355.56;5373843;26;20067;-77
2024/04/23 09:54:01;;;;;;;1.67;1.00;;;;;;;-141.50;100.00;63355.56;5369131;26;20000;-79
2024/04/23 09:56:28;;;;;;;1.70;0.88;;;;;;;-141.50;100.00;63355.56;5371834;26;20004;-78
2024/04/23 09:58:55;;;;;;;2.22;1.30;;;;;;;-141.50;100.00;63355.56;5363057;26;19992;-82
2024/04/23 10:01:27;;;;;;;1.75;1.20;;;;;;;-141.50;100.00;63355.56;5375099;26;20065;-77
2024/04/23 10:03:59;;;;;;;2.30;1.50;;;;;;;-141.50;100.00;63355.56;5354157;26;20074;-78
2024/04/23 10:06:34;;;;;;;3.53;1.90;;;;;;;-141.50;100.00;63355.56;5371794;26;20036;-81
2024/04/23 10:09:16;;;;;;;3.03;1.47;;;;;;;-141.50;100.00;63355.56;5377317;26;20000;-79
2024/04/23 10:12:05;;;;;;;4.50;1.52;;;;;;;-141.50;100.00;63355.56;5372841;26;20023;-80
2024/04/23 10:15:13;;;;;;;2.65;1.50;;;;;;;-141.50;100.00;63355.56;5372839;26;20625;-82
2024/04/23 10:18:20;;;;;;;2.35;1.40;;;;;;;-141.50;100.00;63355.56;5370801;26;20400;-80
2024/04/23 10:20:48;;;;;;;;;;;;;;;-141.50;100.00;63355.56;5343096;26;20004;-81
2024/04/23 10:23:18;;;;;;;2.65;1.55;;;;;;;-141.50;100.00;63355.56;5344878;26;19941;-79
2024/04/23 10:25:46;;;;;;;3.38;1.70;;;;;;;-141.50;100.00;63355.56;5347687;26;20088;-80
2024/04/23 10:28:14;;;;;;;3.65;1.65;;;;;;;-141.50;100.00;63355.56;5370848;26;20004;-81
2024/04/23 10:30:41;;;;;;;4.45;1.73;;;;;;;-141.50;100.00;63355.56;5369384;26;20004;-80
2024/04/23 10:33:12;;;;;;;2.45;1.60;;;;;;;-141.50;100.00;63355.56;5375585;26;19996;-78
2024/04/23 10:35:40;;;;;;;5.00;2.00;;;;;;;-141.50;100.00;63355.56;5362287;26;20031;-78
2024/04/23 10:38:10;;;;;;;4.15;1.58;;;;;;;-141.50;100.00;63355.56;5377902;26;20000;-80
2024/04/23 10:40:40;;;;;;;2.70;1.45;;;;;;;-141.50;100.00;63355.56;5371175;26;20044;-80
2024/04/23 10:43:19;;;;;;;4.93;1.80;;;;;;;-141.50;100.00;63355.56;5372933;26;20016;-79
2024/04/23 10:45:47;;;;;;;5.10;1.55;;;;;;;-141.50;100.00;63355.56;5376098;26;20076;-79
2024/04/23 10:48:27;;;;;;;3.05;1.80;;;;;;;-141.50;100.00;63355.56;5343896;26;20215;-82
2024/04/23 10:50:58;;;;;;;2.72;1.80;;;;;;;-141.50;100.00;63355.56;5346331;26;20008;-78
2024/04/23 10:53:25;;;;;;;2.80;1.70;;;;;;;-141.50;100.00;63355.56;5377837;26;20076;-78
2024/04/23 10:55:52;;;;;;;2.70;1.55;;;;;;;-141.50;100.00;63355.56;5370275;26;20000;-80
2024/04/23 10:58:20;;;;;;;3.03;1.80;;;;;;;-141.50;100.00;63355.56;5402701;26;20058;-79
2024/04/23 11:00:58;;;;;;;2.50;1.73;;;;;;;-141.50;100.00;63355.56;5373796;26;20001;-78
2024/04/23 11:03:30;;;;;;;2.22;1.55;;;;;;;-141.50;100.00;63355.56;5372935;26;20011;-79
2024/04/23 11:05:57;;;;;;;2.80;1.70;;;;;;;-141.50;100.00;63355.56;5357480;26;20010;-79
2024/04/23 11:08:26;;;;;;;3.63;1.90;;;;;;;-141.50;100.00;63355.56;5354054;26;20004;-79
2024/04/23 11:11:05;;;;;;;2.60;1.60;;;;;;;-141.50;100.00;63355.56;5378375;26;20017;-79
2024/04/23 11:13:40;;;;;;;2.78;1.45;;;;;;;-141.50;100.00;63355.56;5358565;26;20009;-80
2024/04/23 11:16:15;;;;;;;3.45;1.98;;;;;;;-141.50;100.00;63355.56;5368069;26;20406;-79
2024/04/23 11:18:43;;;;;;;1.92;1.50;;;;;;;-141.50;100.00;63355.56;5376438;26;20407;-79
2024/04/23 11:21:23;;;;;;;2.55;1.77;;;;;;;-141.50;100.00;63355.56;5374863;26;20015;-78
2024/04/23 11:23:51;;;;;;;2.65;1.83;;;;;;;-141.50;100.00;63355.56;5403297;26;20249;-80